createdAt,value
2023-01-07T08:20:31.272Z,7.30
2023-01-07T08:23:06.408Z,7.30
2023-01-07T08:25:36.800Z,7.40
2023-01-07T08:28:08.880Z,7.50
2023-01-07T08:30:45.532Z,7.60
2023-01-07T08:33:15.893Z,7.70
2023-01-07T08:35:47.821Z,7.90
2023-01-07T08:38:18.971Z,8.10
2023-01-07T08:41:01.384Z,8.30
2023-01-07T08:43:32.618Z,8.40
2023-01-07T08:46:05.420Z,8.50
2023-01-07T08:48:42.873Z,8.60
2023-01-07T08:51:19.020Z,8.80
2023-01-07T08:53:50.630Z,8.90
2023-01-07T08:56:25.627Z,9.00
2023-01-07T08:58:54.078Z,9.20
2023-01-07T09:01:44.123Z,9.30
2023-01-07T09:04:21.231Z,9.40
2023-01-07T09:06:55.438Z,9.50
2023-01-07T09:09:39.826Z,9.70
2023-01-07T09:12:17.263Z,9.70
2023-01-07T09:15:02.838Z,9.80
2023-01-07T09:17:45.460Z,10.00
2023-01-07T09:20:29.323Z,10.20
2023-01-07T09:23:35.238Z,10.30
2023-01-07T09:26:20.915Z,10.40
2023-01-07T09:29:04.421Z,10.60
2023-01-07T09:31:46.927Z,10.70
2023-01-07T09:34:35.365Z,10.80
2023-01-07T09:37:07.326Z,11.00
2023-01-07T09:39:36.021Z,11.10
2023-01-07T09:43:10.764Z,11.20
2023-01-07T09:46:11.805Z,11.30
2023-01-07T09:49:14.175Z,11.40
2023-01-07T09:52:21.676Z,11.50
2023-01-07T09:55:38.057Z,11.60
2023-01-07T09:58:31.374Z,11.70
2023-01-07T10:01:38.085Z,11.90
2023-01-07T10:05:00.238Z,12.00
2023-01-07T10:08:31.238Z,12.10
2023-01-07T10:12:05.025Z,12.20
2023-01-07T10:15:55.227Z,12.40
2023-01-07T10:19:24.840Z,12.40
2023-01-07T10:22:46.787Z,12.60
2023-01-07T10:26:00.924Z,12.80
2023-01-07T10:29:12.040Z,12.90
2023-01-07T10:31:45.790Z,12.80
2023-01-07T10:34:41.135Z,12.90
2023-01-07T10:37:41.106Z,12.90
2023-01-07T10:41:22.844Z,13.00
2023-01-07T10:44:51.937Z,13.00
2023-01-07T10:48:46.400Z,13.00
2023-01-07T10:52:00.824Z,13.00
2023-01-07T10:56:10.084Z,13.10
2023-01-07T10:58:59.310Z,13.20
2023-01-07T11:01:46.588Z,13.30
2023-01-07T11:04:18.577Z,13.50
2023-01-07T11:07:07.426Z,13.60
2023-01-07T11:10:05.108Z,13.80
2023-01-07T11:12:58.705Z,13.90
2023-01-07T11:16:28.024Z,14.00
2023-01-07T11:19:23.851Z,14.20
2023-01-07T11:21:53.349Z,14.50
2023-01-07T11:28:30.830Z,14.80
2023-01-07T11:31:02.122Z,15.00
2023-01-07T11:34:01.590Z,15.30
2023-01-07T11:36:46.227Z,15.50
2023-01-07T11:39:39.740Z,15.60
2023-01-07T11:42:42.752Z,15.80
2023-01-07T11:46:21.134Z,15.80
2023-01-07T11:49:01.539Z,16.00
2023-01-07T11:51:54.277Z,16.10
2023-01-07T11:54:33.424Z,16.30
2023-01-07T11:57:34.893Z,16.40
2023-01-07T12:00:19.491Z,16.50
2023-01-07T12:03:14.318Z,16.70
2023-01-07T12:06:37.495Z,16.80
2023-01-07T12:09:37.503Z,16.80
2023-01-07T12:12:37.317Z,16.80
2023-01-07T12:15:35.145Z,16.80
2023-01-07T12:18:08.434Z,16.90
2023-01-07T12:21:32.638Z,17.00
2023-01-07T12:24:24.439Z,17.10
2023-01-07T12:28:11.605Z,17.20
2023-01-07T12:31:33.104Z,17.10
2023-01-07T12:34:53.027Z,17.10
2023-01-07T12:37:57.028Z,17.10
2023-01-07T12:41:16.110Z,16.90
2023-01-07T12:44:38.544Z,16.80
2023-01-07T12:47:50.113Z,16.70
2023-01-07T12:50:54.313Z,16.50
2023-01-07T12:54:05.819Z,16.20
2023-01-07T12:57:14.151Z,15.90
2023-01-07T13:00:27.874Z,15.80
2023-01-07T13:03:50.495Z,15.60
2023-01-07T13:06:56.429Z,15.40
2023-01-07T13:10:15.631Z,15.20
2023-01-07T13:12:48.727Z,15.10
2023-01-07T13:15:51.466Z,14.90
2023-01-07T13:18:31.221Z,14.80
2023-01-07T13:21:21.914Z,14.70
2023-01-07T13:25:18.071Z,14.70
2023-01-07T13:28:38.093Z,14.50
2023-01-07T13:32:23.522Z,14.40
2023-01-07T13:36:04.684Z,14.30
2023-01-07T13:39:40.988Z,14.20
2023-01-07T13:42:46.821Z,14.20
2023-01-07T13:45:53.236Z,14.10
2023-01-07T13:48:41.876Z,14.00
2023-01-07T13:51:55.627Z,14.00
2023-01-07T13:55:09.492Z,14.00
2023-01-07T13:57:53.018Z,13.90
2023-01-07T14:01:10.884Z,13.90
2023-01-07T14:04:13.726Z,13.80
2023-01-07T14:07:01.234Z,13.80
2023-01-07T14:09:40.030Z,13.80
2023-01-07T14:13:27.071Z,13.80
2023-01-07T14:16:57.032Z,13.80
2023-01-07T14:20:19.083Z,13.90
2023-01-07T14:24:01.840Z,13.80
2023-01-07T14:27:53.348Z,13.90
2023-01-07T14:30:55.800Z,13.90
2023-01-07T14:33:55.015Z,13.90
2023-01-07T14:37:39.468Z,13.90
2023-01-07T14:41:18.043Z,13.80
2023-01-07T14:44:28.872Z,13.80
2023-01-07T14:47:21.978Z,13.80
2023-01-07T14:50:52.581Z,13.70
2023-01-07T14:55:11.959Z,13.70
2023-01-07T14:58:58.456Z,13.60
2023-01-07T15:02:20.704Z,13.50
2023-01-07T15:06:25.191Z,13.40
2023-01-07T15:09:57.621Z,13.50
2023-01-07T15:13:16.256Z,13.40
2023-01-07T15:16:13.960Z,13.40
2023-01-07T15:18:56.489Z,13.40
2023-01-07T15:22:14.335Z,13.40
2023-01-07T15:25:26.819Z,13.30
2023-01-07T15:28:48.056Z,13.30
2023-01-07T15:32:54.078Z,13.30
2023-01-07T15:35:48.167Z,13.30
2023-01-07T15:38:39.924Z,13.10
2023-01-07T15:41:21.314Z,13.10
2023-01-07T15:43:48.866Z,13.10
2023-01-07T15:46:16.503Z,13.00
2023-01-07T15:48:43.903Z,13.00
2023-01-07T15:51:18.886Z,13.00
2023-01-07T15:53:57.442Z,13.00
2023-01-07T15:56:24.852Z,12.90
2023-01-07T15:58:52.601Z,12.80
2023-01-07T16:01:24.951Z,12.80
2023-01-07T16:03:56.576Z,12.70
2023-01-07T16:06:33.921Z,12.70
2023-01-07T16:09:21.363Z,12.70
2023-01-07T16:11:48.987Z,12.70
2023-01-07T16:14:21.900Z,12.60
2023-01-07T16:17:13.126Z,12.60
2023-01-07T16:19:40.827Z,12.50
2023-01-07T16:22:22.676Z,12.50
2023-01-07T16:24:53.310Z,12.50
2023-01-07T16:27:31.035Z,12.50
2023-01-07T16:30:01.457Z,12.40
2023-01-07T16:32:28.915Z,12.30
2023-01-07T16:35:17.362Z,12.20
2023-01-07T16:37:46.931Z,12.10
2023-01-07T16:40:44.947Z,12.10
2023-01-07T16:43:58.868Z,12.10
2023-01-07T16:46:40.711Z,12.00
2023-01-07T16:49:30.164Z,12.00
2023-01-07T16:52:03.404Z,12.00
2023-01-07T16:54:37.393Z,11.90
2023-01-07T16:57:12.536Z,11.90
2023-01-07T16:59:53.801Z,11.90
2023-01-07T17:02:59.777Z,11.80
2023-01-07T17:05:31.913Z,11.80
2023-01-07T17:08:07.778Z,11.70
2023-01-07T17:10:42.753Z,11.60
2023-01-07T17:13:25.089Z,11.60
2023-01-07T17:16:12.667Z,11.50
2023-01-07T17:18:40.200Z,11.50
2023-01-07T17:21:43.457Z,11.50
2023-01-07T17:24:28.939Z,11.50
2023-01-07T17:27:03.053Z,11.50
2023-01-07T17:29:39.345Z,11.40
2023-01-07T17:32:07.108Z,11.40
2023-01-07T17:34:34.505Z,11.40
2023-01-07T17:37:01.864Z,11.30
2023-01-07T17:39:29.299Z,11.30
2023-01-07T17:42:26.503Z,11.30
2023-01-07T17:44:53.814Z,11.30
2023-01-07T17:47:22.837Z,11.20
2023-01-07T17:49:50.194Z,11.20
2023-01-07T17:52:17.519Z,11.20
2023-01-07T17:54:45.008Z,11.20
2023-01-07T17:57:12.997Z,11.20
2023-01-07T17:59:51.014Z,11.20
2023-01-07T18:02:29.702Z,11.10
2023-01-07T18:04:57.146Z,11.00
2023-01-07T18:07:24.531Z,11.00
2023-01-07T18:09:51.873Z,11.00
2023-01-07T18:12:33.222Z,10.90
2023-01-07T18:15:05.188Z,10.90
2023-01-07T18:17:32.639Z,10.80
2023-01-07T18:20:00.047Z,10.80
2023-01-07T18:22:27.472Z,10.80
2023-01-07T18:24:54.843Z,10.80
2023-01-07T18:27:22.988Z,10.70
2023-01-07T18:29:50.450Z,10.70
2023-01-07T18:32:17.893Z,10.70
2023-01-07T18:34:45.386Z,10.70
2023-01-07T18:37:14.734Z,10.60
2023-01-07T18:39:42.154Z,10.60
2023-01-07T18:42:09.501Z,10.50
2023-01-07T18:44:36.978Z,10.40
2023-01-07T18:47:04.624Z,10.30
2023-01-07T18:49:31.972Z,10.30
2023-01-07T18:51:59.359Z,10.30
2023-01-07T18:54:26.710Z,10.30
2023-01-07T18:56:54.056Z,10.30
2023-01-07T18:59:21.744Z,10.30
2023-01-07T19:01:49.281Z,10.30
2023-01-07T19:04:16.755Z,10.30
2023-01-07T19:06:44.079Z,10.20
2023-01-07T19:09:11.402Z,10.20
2023-01-07T19:11:38.833Z,10.10
2023-01-07T19:14:06.255Z,10.20
2023-01-07T19:16:33.656Z,10.00
2023-01-07T19:19:01.253Z,10.00
2023-01-07T19:21:28.851Z,10.00
2023-01-07T19:23:56.325Z,10.00
2023-01-07T19:26:23.711Z,10.00
